Blue Grass (LEX)

 

Airport Diagram
Current Weather/Forecast (LIFR Conditions)
METAR KLEX 260204Z VRB03KT 10SM BKN004 OVC025 07/06 A2968 RMK AO2 RAE00 P0000 T00670061 $
TAF KLEX 252324Z 2600/2624 12012KT P6SM -RA BKN070 FM260200 17008KT 2SM SHRA BR OVC004 FM260800 22011KT 1SM BR BKN004 FM261500 23012G18KT 5SM BR SCT008 FM262100 25012G18KT P6SM BKN050

Airport Information

All Charts
General
Chart Name View
AIRPORT DIAGRAM
AIRPORT DIAGRAM
TAKEOFF MINIMUMS
ALTERNATE MINIMUMS
TAKEOFF MINIMUMS
ALTERNATE MINIMUMS
HOT SPOT
HOT SPOT

Arrivals
Chart Name Download
CLEGG FIVE
CLEGG FIVE

Approaches
Chart Name Download
ILS OR LOC RWY 04
ILS OR LOC RWY 22
RNAV (GPS) RWY 04
RNAV (GPS) RWY 09
RNAV (GPS) RWY 22
RNAV (GPS) RWY 27
VOR-A
ILS OR LOC RWY 04
ILS OR LOC RWY 22
RNAV (GPS) RWY 04
RNAV (GPS) RWY 09
RNAV (GPS) RWY 22
RNAV (GPS) RWY 27
VOR-A


Airport Statistics
Departures Arrivals Local
All Collected Stats since June 2016: 371 339 11
2021 Stats: 19 17 0
January Stats: 19 17 0

Inbound Traffic (Arrivals) - 1
Callsign Aircraft Rules Departure Route
AAL1150 A319/L IFR KMCO JAG6 MATEO SHRKS

Outbound Traffic (Departures) - 0

No outbound traffic.


Local Traffic (Pattern) - 0

No local traffic.